createdAt,value
2017-11-01T00:01:44.279Z,12.33
2017-11-01T00:04:10.662Z,11.07
2017-11-01T00:06:36.918Z,11.70
2017-11-01T00:09:03.274Z,13.00
2017-11-01T00:11:29.555Z,12.77
2017-11-01T00:13:55.855Z,11.67
2017-11-01T00:16:29.067Z,11.63
2017-11-01T00:18:55.985Z,11.60
2017-11-01T00:21:22.086Z,11.47
2017-11-01T00:23:48.188Z,11.70
2017-11-01T00:26:14.346Z,11.97
2017-11-01T00:28:40.438Z,12.00
2017-11-01T00:31:06.742Z,11.03
2017-11-01T00:33:33.095Z,11.33
2017-11-01T00:35:59.541Z,11.47
2017-11-01T00:38:25.826Z,12.50
2017-11-01T00:40:52.121Z,11.17
2017-11-01T00:43:18.401Z,10.53
2017-11-01T00:45:44.755Z,11.43
2017-11-01T00:48:11.149Z,11.87
2017-11-01T00:50:38.202Z,11.77
2017-11-01T00:53:04.546Z,11.73
2017-11-01T00:55:30.910Z,12.67
2017-11-01T00:57:57.238Z,11.40
2017-11-01T01:00:24.303Z,11.00
2017-11-01T01:02:50.600Z,12.00
2017-11-01T01:05:16.884Z,12.37
2017-11-01T01:07:43.941Z,11.43
2017-11-01T01:10:10.235Z,11.53
2017-11-01T01:12:36.547Z,11.63
2017-11-01T01:15:02.863Z,14.17
2017-11-01T01:17:29.199Z,12.60
2017-11-01T01:19:55.499Z,13.13
2017-11-01T01:22:21.783Z,11.37
2017-11-01T01:24:48.850Z,12.47
2017-11-01T01:27:15.135Z,14.33
2017-11-01T01:29:41.419Z,12.60
2017-11-01T01:32:07.786Z,13.13
2017-11-01T01:34:34.179Z,13.77
2017-11-01T01:37:01.267Z,12.90
2017-11-01T01:39:27.550Z,11.77
2017-11-01T01:41:54.032Z,12.37
2017-11-01T01:44:20.404Z,12.30
2017-11-01T01:46:47.443Z,12.47
2017-11-01T01:49:14.291Z,13.07
2017-11-01T01:51:41.132Z,14.17
2017-11-01T01:54:07.965Z,12.87
2017-11-01T01:56:34.078Z,12.57
2017-11-01T01:59:00.198Z,12.40
2017-11-01T02:01:26.322Z,12.87
2017-11-01T02:03:52.427Z,12.67
2017-11-01T02:06:18.515Z,12.50
2017-11-01T02:08:44.875Z,12.63
2017-11-01T02:11:11.174Z,14.20
2017-11-01T02:13:37.473Z,14.20
2017-11-01T02:16:03.798Z,12.03
2017-11-01T02:18:30.089Z,13.47
2017-11-01T02:20:56.403Z,13.70
2017-11-01T02:23:22.690Z,13.50
2017-11-01T02:25:49.739Z,12.27
2017-11-01T02:28:16.146Z,13.13
2017-11-01T02:30:42.425Z,13.37
2017-11-01T02:33:08.839Z,13.40
2017-11-01T02:35:35.156Z,12.50
2017-11-01T02:38:02.200Z,13.00
2017-11-01T02:40:28.507Z,13.40
2017-11-01T02:42:54.833Z,11.63
2017-11-01T02:45:21.146Z,14.60
2017-11-01T02:47:47.471Z,12.27
2017-11-01T02:50:13.750Z,12.87
2017-11-01T02:52:40.059Z,13.23
2017-11-01T02:55:06.430Z,12.83
2017-11-01T02:57:32.738Z,13.30
2017-11-01T03:00:01.967Z,11.73
2017-11-01T03:02:28.310Z,12.50
2017-11-01T03:04:54.615Z,12.03
2017-11-01T03:07:20.922Z,12.90
2017-11-01T03:09:47.245Z,11.67
2017-11-01T03:12:14.301Z,12.10
2017-11-01T03:14:41.361Z,10.50
2017-11-01T03:17:07.717Z,12.00
2017-11-01T03:19:34.022Z,11.93
2017-11-01T03:22:01.093Z,12.20
2017-11-01T03:24:27.405Z,11.37
2017-11-01T03:26:53.817Z,10.90
2017-11-01T03:29:20.174Z,11.90
2017-11-01T03:31:46.460Z,11.13
2017-11-01T03:34:13.533Z,12.10
2017-11-01T03:36:39.859Z,11.90
2017-11-01T03:39:06.154Z,12.00
2017-11-01T03:41:32.446Z,12.70
2017-11-01T03:43:58.791Z,11.47
2017-11-01T03:46:25.084Z,13.10
2017-11-01T03:48:51.381Z,14.30
2017-11-01T03:51:17.666Z,13.57
2017-11-01T03:53:43.994Z,13.30
2017-11-01T03:56:10.342Z,13.30
2017-11-01T03:58:36.637Z,13.87
2017-11-01T04:01:02.932Z,13.97
2017-11-01T04:03:29.967Z,14.70
2017-11-01T04:05:57.065Z,14.00
2017-11-01T04:08:23.370Z,14.17
2017-11-01T04:10:50.396Z,15.70
2017-11-01T04:13:16.703Z,18.43
2017-11-01T04:15:43.000Z,14.83
2017-11-01T04:18:15.238Z,14.83
2017-11-01T04:20:41.526Z,16.67
2017-11-01T04:23:07.829Z,16.80
2017-11-01T04:25:34.152Z,17.53
2017-11-01T04:28:00.465Z,16.57
2017-11-01T04:30:26.763Z,17.23
2017-11-01T04:32:53.823Z,16.33
2017-11-01T04:35:20.854Z,15.97
2017-11-01T04:37:47.187Z,17.23
2017-11-01T04:40:14.392Z,16.90
2017-11-01T04:42:40.738Z,16.80
2017-11-01T04:45:07.058Z,17.93
2017-11-01T04:47:34.114Z,19.03
2017-11-01T04:50:00.398Z,18.30
2017-11-01T04:52:26.703Z,17.53
2017-11-01T04:54:53.904Z,16.73
2017-11-01T04:57:24.177Z,17.87
2017-11-01T04:59:51.248Z,17.47
2017-11-01T05:02:23.758Z,17.83
2017-11-01T05:04:50.780Z,17.13
2017-11-01T05:07:17.078Z,17.23
2017-11-01T05:09:45.366Z,17.20
2017-11-01T05:12:13.557Z,19.60
2017-11-01T05:14:39.875Z,18.50
2017-11-01T05:17:06.165Z,19.07
2017-11-01T05:19:33.221Z,18.43
2017-11-01T05:22:00.261Z,19.23
2017-11-01T05:24:29.198Z,19.53
2017-11-01T05:26:55.531Z,20.33
2017-11-01T05:29:21.846Z,19.23
2017-11-01T05:31:48.150Z,19.80
2017-11-01T05:34:15.186Z,19.77
2017-11-01T05:36:42.229Z,20.13
2017-11-01T05:39:09.275Z,19.90
2017-11-01T05:41:36.119Z,19.73
2017-11-01T05:44:02.973Z,20.07
2017-11-01T05:46:29.089Z,21.77
2017-11-01T05:48:55.982Z,22.20
2017-11-01T05:51:22.103Z,19.33
2017-11-01T05:53:48.221Z,22.10
2017-11-01T05:56:16.086Z,20.43
2017-11-01T05:58:42.183Z,21.37
2017-11-01T06:01:08.314Z,22.30
2017-11-01T06:03:34.440Z,21.07
2017-11-01T06:06:00.537Z,19.80
2017-11-01T06:08:26.935Z,21.50
2017-11-01T06:10:54.072Z,21.87
2017-11-01T06:13:20.189Z,20.13
2017-11-01T06:15:46.519Z,22.10
2017-11-01T06:18:12.822Z,21.87
2017-11-01T06:20:39.132Z,22.03
2017-11-01T06:23:06.282Z,21.47
2017-11-01T06:25:32.568Z,22.80
2017-11-01T06:27:58.886Z,22.40
2017-11-01T06:30:25.931Z,21.90
2017-11-01T06:32:52.272Z,19.83
2017-11-01T06:35:18.555Z,21.33
2017-11-01T06:37:44.959Z,20.50
2017-11-01T06:40:11.260Z,22.30
2017-11-01T06:42:37.579Z,21.17
2017-11-01T06:45:03.879Z,21.40
2017-11-01T06:47:30.187Z,21.73
2017-11-01T06:49:57.261Z,21.80
2017-11-01T06:52:23.606Z,21.63
2017-11-01T06:54:49.906Z,22.23
2017-11-01T06:57:16.211Z,22.50
2017-11-01T06:59:43.249Z,22.07
2017-11-01T07:02:09.562Z,24.40
2017-11-01T07:04:35.866Z,21.77
2017-11-01T07:07:02.159Z,23.03
2017-11-01T07:09:28.484Z,21.90
2017-11-01T07:11:55.558Z,22.83
2017-11-01T07:14:21.851Z,23.23
2017-11-01T07:16:48.155Z,22.80
2017-11-01T07:19:14.473Z,20.80
2017-11-01T07:21:40.773Z,20.80
2017-11-01T07:24:07.079Z,21.53
2017-11-01T07:26:34.115Z,20.60
2017-11-01T07:29:01.171Z,21.10
2017-11-01T07:31:28.227Z,21.30
2017-11-01T07:33:54.541Z,19.67
2017-11-01T07:36:20.889Z,18.17
2017-11-01T07:38:47.193Z,20.80
2017-11-01T07:41:14.255Z,17.77
2017-11-01T07:43:41.307Z,18.20
2017-11-01T07:46:08.415Z,17.83
2017-11-01T07:48:34.507Z,18.00
2017-11-01T07:51:00.796Z,18.03
2017-11-01T07:53:27.121Z,17.03
2017-11-01T07:55:54.221Z,16.77
2017-11-01T07:58:20.550Z,17.03
2017-11-01T08:00:46.846Z,16.20
2017-11-01T08:03:13.218Z,16.47
2017-11-01T08:05:39.539Z,16.00
2017-11-01T08:08:05.869Z,18.40
2017-11-01T08:10:32.198Z,15.90
2017-11-01T08:12:58.543Z,15.10
2017-11-01T08:15:24.917Z,17.03
2017-11-01T08:17:51.930Z,16.63
2017-11-01T08:20:18.525Z,16.30
2017-11-01T08:22:44.818Z,16.47
2017-11-01T08:25:11.150Z,16.30
2017-11-01T08:27:37.445Z,17.33
2017-11-01T08:30:03.727Z,16.70
2017-11-01T08:32:30.110Z,16.67
2017-11-01T08:34:56.510Z,17.70
2017-11-01T08:37:22.786Z,18.20
2017-11-01T08:39:49.832Z,18.03
2017-11-01T08:42:16.153Z,17.83
2017-11-01T08:44:43.189Z,17.83
2017-11-01T08:47:09.697Z,17.80
2017-11-01T08:49:35.986Z,17.53
2017-11-01T08:52:03.015Z,19.33
2017-11-01T08:54:30.160Z,19.37
2017-11-01T08:56:56.467Z,18.27
2017-11-01T08:59:22.766Z,20.83
2017-11-01T09:01:49.247Z,19.03
2017-11-01T09:04:16.420Z,20.97
2017-11-01T09:06:42.741Z,19.67
2017-11-01T09:09:09.139Z,17.93
2017-11-01T09:11:35.534Z,18.50
2017-11-01T09:14:01.863Z,17.43
2017-11-01T09:16:28.203Z,17.00
2017-11-01T09:18:54.653Z,18.80
2017-11-01T09:21:20.966Z,17.10
2017-11-01T09:23:47.284Z,17.10
2017-11-01T09:26:13.637Z,19.40
2017-11-01T09:28:39.919Z,17.37
2017-11-01T09:31:06.221Z,17.50
2017-11-01T09:33:33.267Z,16.23
2017-11-01T09:36:00.312Z,16.60
2017-11-01T09:38:27.338Z,17.57
2017-11-01T09:40:53.750Z,16.57
2017-11-01T09:43:20.054Z,17.30
2017-11-01T09:45:46.348Z,16.67
2017-11-01T09:48:13.438Z,15.80
2017-11-01T09:50:40.455Z,18.37
2017-11-01T09:53:07.529Z,16.50
2017-11-01T09:55:33.971Z,16.30
2017-11-01T09:58:00.275Z,16.17
2017-11-01T10:00:26.574Z,17.77
2017-11-01T10:02:52.950Z,17.90
2017-11-01T10:05:19.343Z,15.20
2017-11-01T10:07:46.440Z,15.57
2017-11-01T10:10:12.798Z,15.90
2017-11-01T10:12:39.126Z,16.87
2017-11-01T10:15:05.430Z,16.53
2017-11-01T10:17:31.703Z,17.40
2017-11-01T10:19:58.945Z,14.90
2017-11-01T10:22:25.401Z,17.27
2017-11-01T10:24:51.824Z,17.00
2017-11-01T10:27:18.129Z,17.60
2017-11-01T10:29:44.450Z,16.13
2017-11-01T10:32:10.750Z,17.87
2017-11-01T10:34:37.054Z,15.57
2017-11-01T10:37:03.366Z,15.83
2017-11-01T10:39:30.458Z,16.17
2017-11-01T10:41:56.747Z,16.10
2017-11-01T10:44:23.100Z,15.40
2017-11-01T10:46:49.382Z,16.10
2017-11-01T10:49:15.658Z,17.07
2017-11-01T10:51:41.965Z,16.40
2017-11-01T10:54:08.281Z,18.13
2017-11-01T10:56:35.383Z,21.07
2017-11-01T10:59:01.707Z,15.47
2017-11-01T11:01:28.030Z,16.27
2017-11-01T11:03:54.320Z,14.33
2017-11-01T11:06:20.642Z,13.87
2017-11-01T11:08:47.680Z,13.80
2017-11-01T11:11:13.977Z,13.73
2017-11-01T11:13:40.251Z,14.80
2017-11-01T11:16:07.328Z,14.17
2017-11-01T11:18:34.414Z,13.00
2017-11-01T11:21:00.725Z,13.00
2017-11-01T11:23:27.104Z,12.90
2017-11-01T11:25:54.159Z,11.80
2017-11-01T11:28:20.370Z,13.50
2017-11-01T11:30:47.408Z,12.00
2017-11-01T11:33:13.711Z,11.73
2017-11-01T11:35:40.019Z,11.47
2017-11-01T11:38:06.350Z,11.70
2017-11-01T11:40:32.700Z,12.37
2017-11-01T11:42:58.975Z,12.07
2017-11-01T11:45:25.298Z,11.37
2017-11-01T11:47:52.322Z,13.10
2017-11-01T11:50:18.630Z,12.37
2017-11-01T11:52:44.939Z,14.23
2017-11-01T11:55:11.258Z,12.73
2017-11-01T11:57:37.561Z,12.07
2017-11-01T12:00:04.643Z,12.57
2017-11-01T12:02:30.942Z,10.67
2017-11-01T12:04:57.269Z,12.70
2017-11-01T12:07:23.590Z,11.30
2017-11-01T12:09:50.624Z,12.27
2017-11-01T12:12:16.981Z,11.97
2017-11-01T12:14:43.295Z,12.20
2017-11-01T12:17:10.333Z,10.80
2017-11-01T12:19:36.724Z,10.43
2017-11-01T12:22:03.066Z,10.33
2017-11-01T12:24:29.402Z,10.57
2017-11-01T12:26:55.706Z,10.77
2017-11-01T12:29:22.016Z,11.17
2017-11-01T12:31:48.348Z,10.43
2017-11-01T12:34:14.650Z,12.20
2017-11-01T12:36:41.701Z,11.57
2017-11-01T12:39:08.069Z,10.83
2017-11-01T12:41:36.343Z,12.37
2017-11-01T12:44:02.646Z,11.93
2017-11-01T12:46:28.948Z,11.40
2017-11-01T12:48:55.254Z,10.67
2017-11-01T12:51:21.563Z,11.13
2017-11-01T12:53:47.889Z,11.00
2017-11-01T12:56:14.173Z,10.13
2017-11-01T12:58:40.518Z,11.20
2017-11-01T13:01:06.834Z,11.03
2017-11-01T13:03:33.118Z,12.00
2017-11-01T13:05:59.431Z,11.30
2017-11-01T13:08:25.796Z,10.67
2017-11-01T13:10:52.087Z,9.63
2017-11-01T13:13:18.373Z,9.43
2017-11-01T13:15:45.601Z,10.60
2017-11-01T13:18:11.902Z,9.07
2017-11-01T13:20:38.199Z,9.23
2017-11-01T13:23:04.504Z,9.60
2017-11-01T13:25:31.552Z,8.40
2017-11-01T13:27:58.620Z,9.00
2017-11-01T13:30:24.915Z,8.10
2017-11-01T13:32:51.194Z,7.73
2017-11-01T13:35:17.494Z,8.37
2017-11-01T13:37:45.502Z,7.63
2017-11-01T13:40:12.557Z,7.80
2017-11-01T13:42:38.882Z,8.07
2017-11-01T13:45:05.174Z,7.70
2017-11-01T13:47:31.495Z,7.67
2017-11-01T13:49:57.786Z,7.87
2017-11-01T13:52:24.204Z,7.73
2017-11-01T13:54:50.681Z,7.73
2017-11-01T13:57:17.003Z,7.50
2017-11-01T13:59:44.024Z,7.73
2017-11-01T14:02:10.326Z,8.20
2017-11-01T14:04:36.611Z,7.30
2017-11-01T14:07:03.722Z,7.53
2017-11-01T14:09:30.015Z,8.10
2017-11-01T14:11:56.383Z,7.57
2017-11-01T14:14:22.677Z,7.70
2017-11-01T14:16:48.949Z,8.50
2017-11-01T14:19:16.918Z,8.47
2017-11-01T14:21:43.224Z,7.50
2017-11-01T14:24:09.512Z,7.40
2017-11-01T14:26:35.830Z,6.77
2017-11-01T14:29:02.855Z,6.93
2017-11-01T14:31:29.145Z,6.93
2017-11-01T14:33:55.429Z,9.50
2017-11-01T14:36:22.458Z,8.30
2017-11-01T14:38:48.786Z,8.17
2017-11-01T14:41:15.106Z,7.47
2017-11-01T14:43:41.392Z,9.20
2017-11-01T14:46:07.681Z,8.60
2017-11-01T14:48:35.791Z,8.00
2017-11-01T14:51:02.155Z,10.53
2017-11-01T14:53:28.559Z,7.07
2017-11-01T14:55:54.871Z,6.87
2017-11-01T14:58:21.887Z,9.60
2017-11-01T15:00:48.194Z,8.20
2017-11-01T15:03:14.542Z,6.17
2017-11-01T15:05:41.592Z,8.23
2017-11-01T15:08:07.899Z,6.57
2017-11-01T15:10:34.194Z,7.00
2017-11-01T15:13:00.481Z,6.60
2017-11-01T15:15:26.762Z,6.90
2017-11-01T15:17:53.097Z,8.20
2017-11-01T15:20:19.408Z,9.20
2017-11-01T15:22:45.697Z,8.80
2017-11-01T15:25:11.995Z,8.70
2017-11-01T15:27:39.072Z,7.03
2017-11-01T15:30:06.231Z,7.70
2017-11-01T15:32:32.495Z,8.37
2017-11-01T15:34:58.832Z,8.07
2017-11-01T15:37:25.127Z,8.00
2017-11-01T15:39:52.154Z,8.40
2017-11-01T15:42:20.300Z,8.20
2017-11-01T15:44:46.638Z,7.67
2017-11-01T15:47:12.942Z,7.33
2017-11-01T15:49:39.270Z,7.10
2017-11-01T15:52:05.597Z,8.37
2017-11-01T15:54:32.611Z,8.47
2017-11-01T15:56:58.915Z,8.07
2017-11-01T15:59:25.306Z,8.30
2017-11-01T16:01:51.627Z,8.30
2017-11-01T16:04:17.912Z,7.10
2017-11-01T16:06:44.992Z,6.43
2017-11-01T16:09:11.550Z,7.27
2017-11-01T16:11:37.915Z,8.93
2017-11-01T16:14:04.951Z,8.80
2017-11-01T16:16:31.251Z,8.97
2017-11-01T16:18:57.566Z,13.83
2017-11-01T16:21:23.855Z,12.70
2017-11-01T16:23:50.893Z,13.00
2017-11-01T16:26:17.923Z,13.30
2017-11-01T16:28:44.195Z,13.10
2017-11-01T16:31:10.539Z,13.27
2017-11-01T16:33:36.835Z,14.00
2017-11-01T16:36:03.850Z,12.83
2017-11-01T16:38:30.263Z,14.80
2017-11-01T16:40:56.562Z,16.07
2017-11-01T16:43:22.882Z,18.27
2017-11-01T16:45:49.234Z,20.50
2017-11-01T16:48:15.538Z,17.90
2017-11-01T16:50:42.676Z,15.87
2017-11-01T16:53:08.985Z,14.00
2017-11-01T16:55:35.479Z,13.50
2017-11-01T16:58:01.879Z,15.63
2017-11-01T17:00:28.232Z,13.30
2017-11-01T17:02:54.579Z,14.37
2017-11-01T17:05:20.916Z,12.83
2017-11-01T17:07:47.932Z,12.23
2017-11-01T17:10:14.994Z,10.70
2017-11-01T17:12:41.313Z,11.07
2017-11-01T17:15:10.935Z,8.97
2017-11-01T17:17:38.190Z,12.23
2017-11-01T17:20:04.615Z,10.53
2017-11-01T17:22:30.903Z,12.83
2017-11-01T17:24:57.208Z,11.83
2017-11-01T17:27:25.076Z,13.10
2017-11-01T17:29:52.256Z,11.07
2017-11-01T17:32:18.558Z,9.73
2017-11-01T17:34:45.618Z,9.93
2017-11-01T17:37:12.054Z,9.10
2017-11-01T17:39:39.079Z,8.77
2017-11-01T17:42:05.441Z,8.80
2017-11-01T17:44:31.807Z,8.77
2017-11-01T17:46:58.990Z,8.07
2017-11-01T17:49:25.281Z,8.40
2017-11-01T17:51:52.756Z,8.50
2017-11-01T17:54:19.035Z,11.63
2017-11-01T17:56:45.388Z,9.90
2017-11-01T17:59:11.723Z,9.13
2017-11-01T18:01:38.075Z,7.70
2017-11-01T18:04:05.206Z,6.80
2017-11-01T18:06:32.083Z,6.63
2017-11-01T18:08:59.105Z,7.37
2017-11-01T18:11:26.483Z,7.70
2017-11-01T18:13:53.742Z,7.47
2017-11-01T18:16:20.843Z,6.90
2017-11-01T18:18:47.178Z,6.93
2017-11-01T18:21:14.029Z,7.43
2017-11-01T18:23:40.483Z,7.10
2017-11-01T18:26:07.543Z,6.60
2017-11-01T18:28:33.859Z,6.40
2017-11-01T18:31:00.954Z,7.73
2017-11-01T18:33:27.281Z,6.83
2017-11-01T18:35:53.559Z,7.90
2017-11-01T18:38:20.612Z,7.67
2017-11-01T18:40:47.645Z,7.03
2017-11-01T18:43:15.771Z,6.43
2017-11-01T18:45:41.859Z,6.60
2017-11-01T18:48:08.154Z,6.20
2017-11-01T18:50:34.560Z,7.83
2017-11-01T18:53:00.893Z,4.60
2017-11-01T18:55:27.211Z,5.47
2017-11-01T18:57:53.506Z,5.03
2017-11-01T19:00:20.538Z,4.67
2017-11-01T19:02:46.851Z,5.20
2017-11-01T19:05:14.203Z,4.93
2017-11-01T19:07:40.554Z,6.03
2017-11-01T19:10:06.835Z,4.33
2017-11-01T19:12:33.178Z,5.70
2017-11-01T19:14:59.630Z,4.70
2017-11-01T19:17:25.946Z,5.13
2017-11-01T19:19:52.356Z,4.53
2017-11-01T19:22:18.734Z,5.57
2017-11-01T19:24:45.770Z,4.97
2017-11-01T19:27:12.087Z,10.07
2017-11-01T19:29:38.383Z,5.57
2017-11-01T19:32:04.678Z,4.63
2017-11-01T19:34:30.960Z,5.50
2017-11-01T19:36:57.277Z,6.50
2017-11-01T19:39:23.551Z,5.93
2017-11-01T19:41:49.951Z,5.93
2017-11-01T19:44:16.284Z,6.63
2017-11-01T19:46:42.637Z,5.80
2017-11-01T19:49:10.299Z,5.70
2017-11-01T19:51:36.690Z,5.43
2017-11-01T19:54:03.150Z,6.13
2017-11-01T19:56:30.517Z,6.80
2017-11-01T19:58:57.582Z,6.23
2017-11-01T20:01:23.903Z,6.03
2017-11-01T20:03:50.228Z,5.10
2017-11-01T20:06:16.620Z,4.80
2017-11-01T20:08:42.896Z,5.13
2017-11-01T20:11:09.315Z,5.77
2017-11-01T20:13:36.400Z,6.47
2017-11-01T20:16:02.706Z,5.43
2017-11-01T20:18:29.074Z,4.70
2017-11-01T20:20:55.372Z,5.97
2017-11-01T20:23:21.760Z,5.13
2017-11-01T20:25:48.054Z,5.03
2017-11-01T20:28:14.422Z,5.43
2017-11-01T20:30:41.481Z,5.60
2017-11-01T20:33:07.777Z,5.20
2017-11-01T20:35:34.113Z,6.87
2017-11-01T20:38:00.445Z,5.90
2017-11-01T20:40:26.748Z,5.60
2017-11-01T20:42:53.666Z,5.73
2017-11-01T20:45:19.952Z,6.03
2017-11-01T20:47:46.463Z,6.60
2017-11-01T20:50:12.765Z,6.67
2017-11-01T20:52:39.114Z,7.00
2017-11-01T20:55:05.459Z,6.30
2017-11-01T20:57:31.875Z,6.80
2017-11-01T20:59:58.253Z,6.27
2017-11-01T21:02:24.623Z,7.07
2017-11-01T21:04:50.913Z,7.53
2017-11-01T21:07:18.030Z,7.20
2017-11-01T21:09:44.355Z,7.20
2017-11-01T21:12:11.708Z,6.37
2017-11-01T21:14:37.999Z,8.10
2017-11-01T21:17:04.320Z,8.83
2017-11-01T21:19:30.608Z,7.47
2017-11-01T21:21:56.915Z,11.37
2017-11-01T21:24:23.230Z,7.47
2017-11-01T21:26:49.560Z,6.20
2017-11-01T21:29:16.939Z,7.07
2017-11-01T21:31:43.369Z,5.60
2017-11-01T21:34:09.781Z,5.37
2017-11-01T21:36:36.136Z,4.90
2017-11-01T21:39:02.434Z,5.33
2017-11-01T21:41:28.776Z,4.83
2017-11-01T21:43:55.134Z,6.03
2017-11-01T21:46:22.487Z,5.60
2017-11-01T21:48:48.763Z,4.77
2017-11-01T21:51:15.073Z,5.40
2017-11-01T21:53:41.443Z,7.20
2017-11-01T21:56:07.763Z,7.07
2017-11-01T21:58:34.227Z,9.50
2017-11-01T22:01:01.606Z,6.20
2017-11-01T22:03:28.732Z,6.40
2017-11-01T22:05:55.180Z,5.40
2017-11-01T22:08:21.599Z,5.30
2017-11-01T22:10:47.902Z,5.47
2017-11-01T22:13:14.212Z,6.00
2017-11-01T22:15:40.523Z,5.30
2017-11-01T22:18:07.647Z,5.07
2017-11-01T22:20:33.958Z,5.03
2017-11-01T22:23:00.363Z,5.13
2017-11-01T22:25:26.694Z,4.80
2017-11-01T22:27:53.102Z,5.00
2017-11-01T22:30:19.401Z,5.00
2017-11-01T22:32:46.441Z,4.23
2017-11-01T22:35:12.933Z,4.23
2017-11-01T22:37:39.242Z,4.47
2017-11-01T22:40:05.587Z,4.77
2017-11-01T22:42:31.874Z,4.63
2017-11-01T22:44:58.190Z,4.17
2017-11-01T22:47:24.647Z,4.60
2017-11-01T22:49:50.958Z,4.97
2017-11-01T22:52:18.086Z,4.73
2017-11-01T22:54:44.436Z,4.80
2017-11-01T22:57:10.730Z,4.57
2017-11-01T22:59:37.108Z,4.70
2017-11-01T23:02:04.122Z,5.50
2017-11-01T23:04:30.395Z,4.87
2017-11-01T23:06:56.692Z,4.23
2017-11-01T23:09:23.735Z,4.67
2017-11-01T23:11:50.014Z,5.17
2017-11-01T23:14:16.323Z,4.30
2017-11-01T23:16:42.629Z,4.93
2017-11-01T23:19:09.673Z,5.00
2017-11-01T23:21:36.771Z,3.93
2017-11-01T23:24:03.164Z,4.07
2017-11-01T23:26:29.458Z,4.40
2017-11-01T23:28:55.791Z,4.87
2017-11-01T23:31:22.082Z,4.13
2017-11-01T23:33:48.376Z,4.30
2017-11-01T23:36:14.693Z,4.00
2017-11-01T23:38:41.765Z,4.47
2017-11-01T23:41:08.062Z,4.60
2017-11-01T23:43:34.373Z,4.30
2017-11-01T23:46:00.678Z,4.43
2017-11-01T23:48:27.142Z,4.17
2017-11-01T23:50:53.704Z,4.10
2017-11-01T23:53:20.017Z,3.73
2017-11-01T23:55:47.078Z,4.20
2017-11-01T23:58:13.672Z,4.23
